createdAt,value
2022-08-20T09:05:13.483Z,8
2022-08-20T09:13:00.277Z,7
2022-08-20T09:20:59.914Z,6
2022-08-20T09:28:32.188Z,6
2022-08-20T09:36:34.075Z,5
2022-08-20T09:44:05.172Z,7
2022-08-20T09:52:16.386Z,5
2022-08-20T10:00:05.851Z,5
2022-08-20T10:08:04.170Z,4
2022-08-20T10:15:33.874Z,4
2022-08-20T10:23:04.309Z,3
2022-08-20T10:30:43.029Z,4
2022-08-20T10:38:02.629Z,2
2022-08-20T10:45:37.152Z,5
2022-08-20T10:53:23.916Z,2
2022-08-20T11:00:52.731Z,1
2022-08-20T11:09:34.175Z,2
2022-08-20T11:17:09.118Z,2
2022-08-20T11:24:50.094Z,0
2022-08-20T11:32:40.182Z,1
2022-08-20T11:41:06.058Z,1
2022-08-20T11:49:26.167Z,1
2022-08-20T11:57:22.594Z,2
2022-08-20T12:05:14.664Z,3
2022-08-20T12:13:18.138Z,7
2022-08-20T12:20:50.732Z,7
2022-08-20T12:28:25.770Z,2
2022-08-20T12:36:17.541Z,3
2022-08-20T12:43:59.255Z,0
2022-08-20T12:51:27.871Z,1
2022-08-20T12:59:05.111Z,1
2022-08-20T13:07:04.201Z,0
2022-08-20T13:14:39.589Z,1
2022-08-20T13:22:33.285Z,0
2022-08-20T13:30:29.448Z,1
2022-08-20T13:38:14.280Z,0
2022-08-20T13:45:48.336Z,1
2022-08-20T13:53:37.466Z,0
2022-08-20T14:01:13.423Z,0
2022-08-20T14:08:54.914Z,1
2022-08-20T14:16:36.301Z,1
2022-08-20T14:24:09.307Z,1
2022-08-20T14:31:50.323Z,1
2022-08-20T14:39:38.514Z,3
2022-08-20T14:47:19.575Z,0
2022-08-20T14:54:48.291Z,0
2022-08-20T15:02:46.753Z,0
2022-08-20T15:10:38.059Z,1
2022-08-20T15:18:20.027Z,0
2022-08-20T15:26:34.166Z,0
2022-08-20T15:34:17.973Z,1
2022-08-20T15:41:54.344Z,0
2022-08-20T15:49:34.547Z,1
2022-08-20T15:57:10.213Z,1
2022-08-20T16:04:55.688Z,0
2022-08-20T16:12:30.015Z,0
2022-08-20T16:20:02.424Z,1
2022-08-20T16:27:31.151Z,1
2022-08-20T16:35:31.828Z,1
2022-08-20T16:43:04.960Z,0
2022-08-20T16:50:42.503Z,1
2022-08-20T16:58:19.573Z,0
2022-08-20T17:06:12.795Z,0
2022-08-20T17:14:07.868Z,0
2022-08-20T17:21:42.904Z,1
2022-08-20T17:29:18.067Z,0
2022-08-20T17:37:00.237Z,0
2022-08-20T17:44:46.834Z,0
2022-08-20T17:52:27.932Z,1
2022-08-20T18:00:39.007Z,0
2022-08-20T18:08:13.183Z,1
2022-08-20T18:15:58.614Z,0
2022-08-20T18:23:37.810Z,0
2022-08-20T18:31:08.178Z,1
2022-08-20T18:38:39.527Z,1
2022-08-20T18:46:12.682Z,0
2022-08-20T18:53:44.421Z,7
2022-08-20T19:01:28.966Z,1
2022-08-20T19:09:28.419Z,1
2022-08-20T19:17:09.631Z,1
2022-08-20T19:25:01.868Z,2
2022-08-20T19:32:51.252Z,2
2022-08-20T19:41:11.129Z,0
2022-08-20T19:48:43.531Z,2
2022-08-20T19:56:24.703Z,2
2022-08-20T20:04:17.651Z,1
2022-08-20T20:12:04.199Z,2
2022-08-20T20:20:01.887Z,1
2022-08-20T20:27:56.542Z,3
2022-08-20T20:35:51.786Z,3
2022-08-20T20:43:46.903Z,2
2022-08-20T20:51:29.862Z,5
2022-08-20T20:59:30.012Z,3
2022-08-20T21:07:50.305Z,4
2022-08-20T21:15:34.281Z,3
2022-08-20T21:23:13.315Z,2
2022-08-20T21:30:40.682Z,4
2022-08-20T21:38:13.846Z,2
2022-08-20T21:46:09.598Z,2
2022-08-20T21:53:56.994Z,3
2022-08-20T22:01:25.846Z,4
2022-08-20T22:09:05.071Z,3
2022-08-20T22:16:42.346Z,3
2022-08-20T22:24:33.719Z,3
2022-08-20T22:32:06.873Z,3
2022-08-20T22:39:57.839Z,4
2022-08-20T22:48:12.283Z,3
2022-08-20T22:56:04.882Z,3
2022-08-20T23:04:13.020Z,3
2022-08-20T23:11:58.799Z,4
2022-08-20T23:19:34.669Z,8
2022-08-20T23:27:06.435Z,13
2022-08-20T23:34:47.720Z,7
2022-08-20T23:42:46.163Z,7
2022-08-20T23:50:34.311Z,8
2022-08-20T23:58:17.544Z,4
